Flight Track Log - Related Links

Times and Time Zones

All times are in EDT time to prevent confusion due to time zone crossing. See the SVA1472 flight status page for this flight to view local times or setup timezone preferences in your user account.

Time Position Orientation Groundspeed Altitude Reporting Facility
EDT Latitude Longitude Course Direction KTS MPH feet Rate Location/Type
Tue 05:12:00 AM 24.7760 40.6999 76° East  Level Estimated
Tue 05:13:00 AM 24.8003 40.8107 76° East  Level Estimated
Tue 05:14:00 AM 24.8246 40.9215 76° East  Level Estimated
Tue 05:15:00 AM 24.8487 41.0323 76° East  Level Estimated
Tue 05:16:00 AM 24.8728 41.1432 77° East  Level Estimated
Tue 05:17:00 AM 24.8968 41.2541 77° East  Level Estimated
Tue 05:18:00 AM 24.9207 41.3651 77° East  Level Estimated
Tue 05:19:00 AM 24.9445 41.4761 77° East  Level Estimated
Tue 05:20:00 AM 24.9683 41.5872 77° East  Level Estimated
Tue 05:21:00 AM 24.9920 41.6983 77° East  Level Estimated
Tue 05:22:00 AM 25.0156 41.8094 77° East  Level Estimated
Tue 05:23:00 AM 25.0390 41.9206 77° East  Level Estimated
Tue 05:24:00 AM 25.0625 42.0318 77° East  Level Estimated
Tue 05:25:00 AM 25.0858 42.1431 77° East  Level Estimated
Tue 05:26:00 AM 25.1091 42.2544 77° East  Level Estimated
Tue 05:27:00 AM 25.1322 42.3658 77° East  Level Estimated
Tue 05:28:00 AM 25.1553 42.4772 77° East  Level Estimated
Tue 05:29:00 AM 25.1783 42.5886 77° East  Level Estimated
Tue 05:30:00 AM 25.2013 42.7001 77° East  Level Estimated
Tue 05:31:00 AM 25.2241 42.8116 77° East  Level Estimated
Tue 05:32:00 AM 25.2468 42.9232 77° East  Level Estimated
Tue 05:33:00 AM 25.2695 43.0348 77° East  Level Estimated
Tue 05:34:00 AM 25.2921 43.1465 77° East  Level Estimated
Tue 05:35:00 AM 25.3146 43.2581 77° East  Level Estimated
Tue 05:36:00 AM 25.3370 43.3699 77° East  Level Estimated
Tue 05:37:00 AM 25.3594 43.4817 78° East  Level Estimated
Tue 05:38:00 AM 25.3816 43.5935 78° East  Level Estimated
Tue 05:39:00 AM 25.4038 43.7053 78° East  Level Estimated
Tue 05:40:00 AM 25.4258 43.8172 78° East  Level Estimated
Tue 05:41:00 AM 25.4478 43.9292 78° East  Level Estimated
Tue 05:42:00 AM 25.4697 44.0411 78° East  Level Estimated
Tue 05:43:00 AM 25.4916 44.1532 78° East  Level Estimated
Tue 05:44:00 AM 25.5133 44.2652 78° East  Level Estimated
Tue 05:45:00 AM 25.5350 44.3773 78° East  Level Estimated
Tue 05:46:00 AM 25.5565 44.4895 78° East  Level Estimated
Tue 05:47:00 AM 25.5780 44.6017 78° East  Level Estimated
Tue 05:48:00 AM 25.5994 44.7139 78° East  Level Estimated
Tue 05:49:00 AM 25.6207 44.8261 78° East  Level Estimated
Tue 05:50:00 AM 25.6420 44.9384 78° East  Level Estimated
Tue 05:51:00 AM 25.6631 45.0508 78° East  Level Estimated
Tue 05:52:00 AM 25.6842 45.1632 78° East  Level Estimated
Tue 05:53:00 AM 25.7051 45.2756 78° East  Level Estimated
Tue 05:54:00 AM 25.7260 45.3881 78° East  Level Estimated
Tue 05:55:00 AM 25.7468 45.5005 78° East  Level Estimated
Tue 05:56:00 AM 25.7675 45.6131 78° East  Level Estimated
Tue 05:57:00 AM 25.7881 45.7257 78° East  Level Estimated
Tue 05:58:00 AM 25.8087 45.8383 79° East  Level Estimated
Tue 05:59:00 AM 25.8291 45.9510 79° East  Level Estimated
Tue 06:00:00 AM 25.8495 46.0636 79° East  Level Estimated
Tue 06:01:00 AM 25.8698 46.1764 79° East  Level Estimated
Tue 06:02:00 AM 25.8900 46.2892 79° East  Level Estimated
Tue 06:03:00 AM 25.9101 46.4020 79° East  Level Estimated
Tue 06:04:00 AM 25.9301 46.5148 79° East  Level Estimated
Tue 06:05:00 AM 25.9500 46.6277 79° East  Level Estimated
Tue 06:06:00 AM 25.9698 46.7406 79° East  Level Estimated
Tue 06:07:00 AM 25.9896 46.8536 79° East  Level Estimated
Tue 06:08:00 AM 26.0093 46.9666 79° East  Level Estimated
Tue 06:09:00 AM 26.0288 47.0796 79° East  Level Estimated
Tue 06:10:00 AM 26.0483 47.1927 79° East  Level Estimated
Tue 06:11:00 AM 26.0677 47.3058 79° East  Level Estimated
Tue 06:12:00 AM 26.0870 47.4190 79° East  Level Estimated
Tue 06:13:00 AM 26.1063 47.5322 79° East  Level Estimated
Tue 06:14:00 AM 26.1254 47.6454 79° East  Level Estimated
Tue 06:15:00 AM 26.1444 47.7587 79° East  Level Estimated
Tue 06:16:00 AM 26.1634 47.8720 79° East  Level Estimated
Tue 06:17:00 AM 26.1823 47.9853 79° East  Level Estimated
Tue 06:18:00 AM 26.2010 48.0987 80° East  Level Estimated
Tue 06:19:00 AM 26.2197 48.2121 80° East  Level Estimated
Tue 06:20:00 AM 26.2383 48.3255 80° East  Level Estimated
Tue 06:21:00 AM 26.2569 48.4390 80° East  Level Estimated
Tue 06:22:00 AM 26.2753 48.5525 80° East  Level Estimated
Tue 06:23:00 AM 26.2936 48.6661 80° East  Level Estimated
Tue 06:24:00 AM 26.3119 48.7797 80° East  Level Estimated
Tue 06:25:00 AM 26.3300 48.8933 80° East  Level Estimated
Tue 06:26:00 AM 26.3481 49.0070 80° East  Level Estimated
Tue 06:27:00 AM 26.3661 49.1207 80° East  Level Estimated
Tue 06:28:00 AM 26.3839 49.2344 80° East  Level Estimated
Tue 06:29:00 AM 26.4018 49.3482 80° East  Level Estimated
Tue 06:30:00 AM 26.4195 49.4620 80° East  Level Estimated
Tue 06:31:00 AM 26.4371 49.5758 80° East  Level Estimated
Tue 06:32:00 AM 26.4546 49.6897 80° East  Level Estimated
Tue 06:33:00 AM 26.4712 49.7979 80° East  Level Estimated
Tue 06:34:00 AM 26.4712 49.7979 North  Level Estimated

Login

Don't have an account? Register now (free) for customized features, flight alerts, and more!